Terminal Aerodrome Forecast
Issued by NWS

Current Version | Previous Version | Text Only | Print | Product List | Glossary On
Versions: 1 2 3 4 5 6 7 8 9 10 11 12 13 14 15 16 17 18
000
FTUS44 KHGX 230521
TAFSGR
TAF
KSGR 230521Z 2306/2406 VRB04KT P6SM FEW150
     FM231800 06007KT P6SM VCSH SCT050
     FM240000 11006KT P6SM FEW050
     FM240300 VRB03KT P6SM SCT250=

USA.gov is the U.S. government's official web portal to all federal, state and local government web resources and services.